Hundvaag 1 weather for Feb 2008
Month no. 248
Obs.
Da.
Temp. Dew Point Precip. Wind
Speed
Wind gusts Cloud cover Press. Humidity Wind dir. Sunny OPT
01.02.2008 5,1   25,3 10,0   1 961,7 38,0 135,0   37,5 %
02.02.2008 0,1   5,0 13,0   4 991,2 67,0 315,0 1 55,0 %
03.02.2008 5,7   9,5 13,0   0 995,3 88,0 202,5   45,0 %
04.02.2008 3,8   0,5 10,0   2 996,9 67,0 157,5   57,5 %
05.02.2008 6,4   0,3 7,0   2 998,3 79,0 202,5   62,5 %
06.02.2008 5,6   7,7 6,0   1 992,9 39,0 157,5   55,0 %
07.02.2008 3,2   6,5 2,0   10 1026,4 39,0 225,0 1 77,5 %
08.02.2008 8,3   4,8 6,0   2 1025,7 39,0 180,0 1 62,5 %
09.02.2008 7,1   0,0 1,0   1 1027,1 39,0 135,0 1 62,5 %
10.02.2008 6,4   0,8 0,0   0 1031,8 39,0 157,5 1 60,0 %
11.02.2008 3,4   0,1 1,0   0 1037,9 40,0 157,5 1 57,5 %
12.02.2008 0,1   0,0 0,0   1 1037,2 40,0 45,0   57,5 %
13.02.2008 4,0   0,0 1,0   0 1036,2 38,0 0,0 1 57,5 %
14.02.2008 0,4   0,0 2,0   2 1041,3 39,0 157,5   60,0 %
15.02.2008 -0,1   0,0 0,0   10 1043,3 76,0 45,0 1 77,5 %
16.02.2008 3,6   0,0 0,0   7 1042,0 75,0 135,0 1 75,0 %
17.02.2008 5,8   0,0 13,0   10 1028,8 88,0 247,5 1 77,5 %
18.02.2008 7,1   5,0 0,0   10 1025,7 92,0 270,0 1 82,5 %
19.02.2008 6,4   0,2 0,0   0 1022,0 93,0 270,0   60,0 %
20.02.2008 4,4   0,4 0,0   1 1015,9 92,0 225,0 1 60,0 %
21.02.2008 5,6   1,6 8,0   0 1001,7 39,0 180,0   55,0 %
22.02.2008 5,7   10,5 2,0   0 993,9 88,0 180,0   52,5 %
23.02.2008 4,8   20,5 2,0   1 1006,4 88,0 90,0   45,0 %
24.02.2008 6,8   9,8 0,0   0 1001,7 99,0 180,0 1 52,5 %
25.02.2008 4,4   8,4 7,0   3 1004,7 80,0 225,0 1 57,5 %
26.02.2008 7,0   15,5 6,0   0 986,5 90,0 180,0 1 45,0 %
27.02.2008 6,8   13,0 13,0   0 985,1 39,0 292,5   42,5 %
28.02.2008 3,1   3,8 0,0   3 1008,5 93,0 157,5 1 62,5 %
29.02.2008 2,8   2,0 0,0   3 1006,1 93,0 112,5 1 65,0 %
                       
                       
Avrg/Sum 4,6   151,2 4,2   2,6 1012,8 66,1 173,0 17 59,2 %